Qm Of London — ZCTD7 — position and weather

sailwx.info

Track history (hours):
 
Tides and Currents Weather Stations Pressure Air Temp Water Temp Dewpoint Dewpoint Depression Visibility Wind Speed Wind Dir Waves Ship Positions

Qm Of London

Last reported at 2014-Sep-01 13:30 UTC. Time now 2014-Sep-01 21:26 UTC.
Position N 43°44' E 007°26'.

Length 50 m; draft 2.6 m.

Type: Pleasure craft. MMSI: 319780000.

Date/timePositionNaut miles runAvg speedWind from/ knotsBaromVisibWave heightAir tempDewpointWater temp
2014-Sep-01 13:30N 43°44' E 007°26'0 0.0
2014-Sep-01 02:25N 43°44' E 007°26'0 0.0
2014-Sep-01 00:21N 43°44' E 007°26'0 0.0
2014-Aug-31 23:33N 43°44' E 007°26'0 0.0
2014-Aug-31 22:28N 43°44' E 007°26'0 0.0
2014-Aug-31 20:29N 43°44' E 007°26'0 0.0
2014-Aug-31 19:30N 43°44' E 007°26'0 0.0
2014-Aug-31 18:31N 43°44' E 007°26'0 0.0
2014-Aug-31 17:20N 43°44' E 007°26'0 0.0
2014-Aug-31 15:33N 43°44' E 007°26'0 0.0
2014-Aug-31 14:33N 43°44' E 007°26'0 0.0
2014-Aug-30 20:19N 43°44' E 007°26'0 0.0
2014-Aug-30 19:28N 43°44' E 007°26'0 0.0
2014-Aug-30 18:29N 43°44' E 007°26'0 0.0
2014-Aug-30 16:18N 43°44' E 007°26'0 0.0
2014-Aug-30 14:32N 43°44' E 007°26'0 0.0
2014-Aug-30 13:20N 43°44' E 007°26'0 0.0
2014-Aug-30 12:33N 43°44' E 007°26'0 0.0
2014-Aug-30 11:28N 43°44' E 007°26'0 0.0
2014-Aug-30 10:25N 43°44' E 007°26'0 0.0
2014-Aug-30 09:32N 43°44' E 007°26'0 0.0
2014-Aug-30 08:30N 43°44' E 007°26'0 0.0
2014-Aug-30 07:15N 43°44' E 007°26'0 0.0
2014-Aug-30 06:28N 43°44' E 007°26'0 0.0
2014-Aug-29 21:31N 43°44' E 007°26'0 0.0
2014-Aug-28 09:15N 43°44' E 007°26'3 4.5
2014-Aug-28 08:33N 43°41' E 007°23'1212.2
2014-Aug-28 07:33N 43°32' E 007°12'1111.4
2014-Aug-28 06:33N 43°26' E 006°59'1010.2
2014-Aug-28 05:33N 43°25' E 006°45'0 0.0
2014-Aug-28 04:31N 43°25' E 006°45'0 0.0
2014-Aug-28 03:29N 43°25' E 006°45'0 0.0
2014-Aug-28 02:24N 43°25' E 006°45'0 0.0
2014-Aug-28 01:33N 43°25' E 006°45'0 0.0
2014-Aug-28 00:31N 43°25' E 006°45'0 0.0
2014-Aug-27 23:32N 43°25' E 006°45'0 0.0
2014-Aug-27 22:32N 43°25' E 006°45'0 0.0
2014-Aug-27 21:33N 43°25' E 006°45'0 0.0
2014-Aug-27 20:31N 43°25' E 006°45'0 0.0
2014-Aug-27 19:31N 43°25' E 006°45'0 0.0
2014-Aug-27 18:32N 43°25' E 006°45'0 0.0
2014-Aug-27 17:33N 43°25' E 006°45'0 0.1
2014-Aug-27 16:33N 43°25' E 006°45'0 0.3
2014-Aug-27 15:28N 43°25' E 006°46'0 0.0
2014-Aug-27 14:29N 43°25' E 006°46'0 0.0
2014-Aug-27 13:33N 43°25' E 006°46'0 0.0
2014-Aug-27 12:30N 43°25' E 006°46'0 0.0
2014-Aug-27 11:31N 43°25' E 006°46'2 1.7
2014-Aug-27 10:33N 43°23' E 006°46'10 9.6
2014-Aug-27 09:33N 43°27' E 006°58'4 3.9
2014-Aug-27 08:27N 43°31' E 006°57'4 4.7
2014-Aug-27 07:33N 43°27' E 006°58'1212.3
2014-Aug-27 06:33N 43°19' E 006°45'6 5.6
2014-Aug-27 05:33N 43°17' E 006°38'0 0.0
2014-Aug-27 04:34N 43°17' E 006°38'0 0.0
2014-Aug-27 03:33N 43°17' E 006°38'0 0.0
2014-Aug-27 02:33N 43°17' E 006°38'0 0.0
2014-Aug-27 01:34N 43°17' E 006°38'0 0.0
2014-Aug-27 00:34N 43°17' E 006°38'0 0.0
2014-Aug-26 23:33N 43°17' E 006°38'0 0.0
2014-Aug-26 22:32N 43°17' E 006°38'0 0.0
2014-Aug-26 21:33N 43°17' E 006°38'0 0.0
2014-Aug-26 20:32N 43°17' E 006°38'0 0.0
2014-Aug-26 19:33N 43°17' E 006°38'0 0.0
2014-Aug-26 18:30N 43°17' E 006°38'0 0.0
2014-Aug-26 17:34N 43°17' E 006°38'0 0.0
2014-Aug-26 16:34N 43°17' E 006°38'0 0.0
2014-Aug-26 15:33N 43°17' E 006°38'0 0.0
2014-Aug-26 14:33N 43°17' E 006°38'1 0.4
2014-Aug-26 12:23N 43°17' E 006°37'1 0.2
2014-Aug-26 08:30N 43°17' E 006°38'0 0.3
2014-Aug-26 07:33N 43°17' E 006°38'0 0.0
2014-Aug-26 06:30N 43°17' E 006°38'0 0.0
2014-Aug-26 05:31N 43°17' E 006°38'0 0.2
2014-Aug-26 04:32N 43°17' E 006°38'7 7.4
2014-Aug-26 03:34N 43°15' E 006°48'1110.7
2014-Aug-26 02:33N 43°06' E 006°55'  
Track history (hours):
 
Tides and Currents Weather Stations Pressure Air Temp Water Temp Dewpoint Dewpoint Depression Visibility Wind Speed Wind Dir Waves Ship Positions

Qm Of London

Last reported at 2014-Sep-01 13:30 UTC. Time now 2014-Sep-01 21:26 UTC.
Position N 43°44' E 007°26'.

Length 50 m; draft 2.6 m.

Type: Pleasure craft. MMSI: 319780000.

Date/timePositionNaut miles runAvg speedWind from/ knotsBaromVisibWave heightAir tempDewpointWater temp
2014-Sep-01 13:30N 43°44' E 007°26'0 0.0
2014-Sep-01 02:25N 43°44' E 007°26'0 0.0
2014-Sep-01 00:21N 43°44' E 007°26'0 0.0
2014-Aug-31 23:33N 43°44' E 007°26'0 0.0
2014-Aug-31 22:28N 43°44' E 007°26'0 0.0
2014-Aug-31 20:29N 43°44' E 007°26'0 0.0
2014-Aug-31 19:30N 43°44' E 007°26'0 0.0
2014-Aug-31 18:31N 43°44' E 007°26'0 0.0
2014-Aug-31 17:20N 43°44' E 007°26'0 0.0
2014-Aug-31 15:33N 43°44' E 007°26'0 0.0
2014-Aug-31 14:33N 43°44' E 007°26'0 0.0
2014-Aug-30 20:19N 43°44' E 007°26'0 0.0
2014-Aug-30 19:28N 43°44' E 007°26'0 0.0
2014-Aug-30 18:29N 43°44' E 007°26'0 0.0
2014-Aug-30 16:18N 43°44' E 007°26'0 0.0
2014-Aug-30 14:32N 43°44' E 007°26'0 0.0
2014-Aug-30 13:20N 43°44' E 007°26'0 0.0
2014-Aug-30 12:33N 43°44' E 007°26'0 0.0
2014-Aug-30 11:28N 43°44' E 007°26'0 0.0
2014-Aug-30 10:25N 43°44' E 007°26'0 0.0
2014-Aug-30 09:32N 43°44' E 007°26'0 0.0
2014-Aug-30 08:30N 43°44' E 007°26'0 0.0
2014-Aug-30 07:15N 43°44' E 007°26'0 0.0
2014-Aug-30 06:28N 43°44' E 007°26'0 0.0
2014-Aug-29 21:31N 43°44' E 007°26'0 0.0
2014-Aug-28 09:15N 43°44' E 007°26'3 4.5
2014-Aug-28 08:33N 43°41' E 007°23'1212.2
2014-Aug-28 07:33N 43°32' E 007°12'1111.4
2014-Aug-28 06:33N 43°26' E 006°59'1010.2
2014-Aug-28 05:33N 43°25' E 006°45'0 0.0
2014-Aug-28 04:31N 43°25' E 006°45'0 0.0
2014-Aug-28 03:29N 43°25' E 006°45'0 0.0
2014-Aug-28 02:24N 43°25' E 006°45'0 0.0
2014-Aug-28 01:33N 43°25' E 006°45'0 0.0
2014-Aug-28 00:31N 43°25' E 006°45'0 0.0
2014-Aug-27 23:32N 43°25' E 006°45'0 0.0
2014-Aug-27 22:32N 43°25' E 006°45'0 0.0
2014-Aug-27 21:33N 43°25' E 006°45'0 0.0
2014-Aug-27 20:31N 43°25' E 006°45'0 0.0
2014-Aug-27 19:31N 43°25' E 006°45'0 0.0
2014-Aug-27 18:32N 43°25' E 006°45'0 0.0
2014-Aug-27 17:33N 43°25' E 006°45'0 0.1
2014-Aug-27 16:33N 43°25' E 006°45'0 0.3
2014-Aug-27 15:28N 43°25' E 006°46'0 0.0
2014-Aug-27 14:29N 43°25' E 006°46'0 0.0
2014-Aug-27 13:33N 43°25' E 006°46'0 0.0
2014-Aug-27 12:30N 43°25' E 006°46'0 0.0
2014-Aug-27 11:31N 43°25' E 006°46'2 1.7
2014-Aug-27 10:33N 43°23' E 006°46'10 9.6
2014-Aug-27 09:33N 43°27' E 006°58'4 3.9
2014-Aug-27 08:27N 43°31' E 006°57'4 4.7
2014-Aug-27 07:33N 43°27' E 006°58'1212.3
2014-Aug-27 06:33N 43°19' E 006°45'6 5.6
2014-Aug-27 05:33N 43°17' E 006°38'0 0.0
2014-Aug-27 04:34N 43°17' E 006°38'0 0.0
2014-Aug-27 03:33N 43°17' E 006°38'0 0.0
2014-Aug-27 02:33N 43°17' E 006°38'0 0.0
2014-Aug-27 01:34N 43°17' E 006°38'0 0.0
2014-Aug-27 00:34N 43°17' E 006°38'0 0.0
2014-Aug-26 23:33N 43°17' E 006°38'0 0.0
2014-Aug-26 22:32N 43°17' E 006°38'0 0.0
2014-Aug-26 21:33N 43°17' E 006°38'0 0.0
2014-Aug-26 20:32N 43°17' E 006°38'0 0.0
2014-Aug-26 19:33N 43°17' E 006°38'0 0.0
2014-Aug-26 18:30N 43°17' E 006°38'0 0.0
2014-Aug-26 17:34N 43°17' E 006°38'0 0.0
2014-Aug-26 16:34N 43°17' E 006°38'0 0.0
2014-Aug-26 15:33N 43°17' E 006°38'0 0.0
2014-Aug-26 14:33N 43°17' E 006°38'1 0.4
2014-Aug-26 12:23N 43°17' E 006°37'1 0.2
2014-Aug-26 08:30N 43°17' E 006°38'0 0.3
2014-Aug-26 07:33N 43°17' E 006°38'0 0.0
2014-Aug-26 06:30N 43°17' E 006°38'0 0.0
2014-Aug-26 05:31N 43°17' E 006°38'0 0.2
2014-Aug-26 04:32N 43°17' E 006°38'7 7.4
2014-Aug-26 03:34N 43°15' E 006°48'1110.7
2014-Aug-26 02:33N 43°06' E 006°55'  

Dump ship's entire track history